Time;durP1;ratioP1;P1;durP2;ratioP2;P2;SDS_P1;SDS_P2;PMS_P1;PMS_P2;Temp;Humidity;BMP_temperature;BMP_pressure;BME280_temperature;BME280_humidity;BME280_pressure;Samples;Min_cycle;Max_cycle;Signal;HPM_P1;HPM_P2
2022/02/15 00:01:41;;;;;;;15.83;7.90;;;5.60;54.10;;;;;;5117102;27;20118;-73
2022/02/15 00:04:08;;;;;;;14.30;7.67;;;5.60;54.10;;;;;;5128870;27;20492;-74
2022/02/15 00:06:34;;;;;;;17.23;8.37;;;5.60;53.90;;;;;;5131597;27;20107;-73
2022/02/15 00:09:00;;;;;;;17.73;8.30;;;5.60;53.70;;;;;;5123698;27;20038;-73
2022/02/15 00:11:26;;;;;;;21.20;8.90;;;5.60;53.70;;;;;;5116425;27;20031;-73
2022/02/15 00:13:52;;;;;;;17.83;9.20;;;5.60;53.60;;;;;;5130233;27;20133;-73
2022/02/15 00:16:18;;;;;;;16.33;9.43;;;5.50;53.60;;;;;;5131232;27;20110;-72
2022/02/15 00:18:44;;;;;;;16.30;9.20;;;5.50;53.60;;;;;;5127206;27;20031;-73
2022/02/15 00:21:09;;;;;;;14.33;9.33;;;5.50;53.50;;;;;;5130939;27;20391;-72
2022/02/15 00:23:35;;;;;;;23.40;9.23;;;5.50;53.50;;;;;;5147746;27;20023;-72
2022/02/15 00:26:01;;;;;;;19.47;9.20;;;5.50;53.50;;;;;;5128346;27;20024;-72
2022/02/15 00:28:27;;;;;;;17.43;9.50;;;5.40;53.50;;;;;;5128691;27;20034;-72
2022/02/15 00:30:53;;;;;;;17.50;9.43;;;5.40;53.50;;;;;;5130512;27;20110;-73
2022/02/15 00:33:19;;;;;;;22.93;9.07;;;5.40;53.50;;;;;;5130435;27;20601;-73
2022/02/15 00:35:46;;;;;;;19.73;9.90;;;5.50;53.60;;;;;;5116391;27;20063;-73
2022/02/15 00:38:12;;;;;;;18.37;9.33;;;5.40;53.50;;;;;;5114710;28;20796;-73
2022/02/15 00:40:38;;;;;;;19.53;9.50;;;5.40;53.50;;;;;;5141530;27;20031;-72
2022/02/15 00:43:04;;;;;;;19.60;8.77;;;5.40;53.50;;;;;;5110755;28;20027;-72
2022/02/15 00:45:31;;;;;;;17.83;8.90;;;5.40;53.50;;;;;;5125765;28;20031;-73
2022/02/15 00:47:56;;;;;;;16.90;9.00;;;5.40;53.50;;;;;;5125394;28;20043;-73
2022/02/15 00:50:22;;;;;;;21.77;9.10;;;5.40;53.60;;;;;;5127399;27;20488;-72
2022/02/15 00:52:48;;;;;;;15.73;8.03;;;5.40;53.60;;;;;;5123751;28;20059;-72
2022/02/15 00:55:13;;;;;;;16.90;8.73;;;5.30;53.70;;;;;;5145172;27;20027;-73
2022/02/15 00:57:41;;;;;;;16.27;7.40;;;5.30;54.00;;;;;;5123759;28;20200;-72
2022/02/15 01:00:09;;;;;;;14.63;7.17;;;5.30;54.20;;;;;;5127938;27;20107;-73
2022/02/15 01:02:35;;;;;;;14.90;8.53;;;5.30;54.40;;;;;;5146202;27;20119;-72
2022/02/15 01:05:01;;;;;;;16.63;8.67;;;5.30;54.50;;;;;;5144658;27;20110;-74
2022/02/15 01:07:26;;;;;;;12.93;6.40;;;5.30;54.50;;;;;;5128652;28;20031;-73
2022/02/15 01:09:52;;;;;;;15.60;7.20;;;5.40;54.70;;;;;;5126707;28;20023;-75
2022/02/15 01:12:18;;;;;;;14.83;7.00;;;5.40;54.80;;;;;;5122729;27;20034;-73
2022/02/15 01:14:44;;;;;;;11.90;6.60;;;5.30;54.90;;;;;;5129581;27;20027;-73
2022/02/15 01:17:09;;;;;;;12.23;5.40;;;5.40;55.00;;;;;;5133211;27;20076;-73
2022/02/15 01:19:35;;;;;;;10.40;5.00;;;5.40;55.10;;;;;;5130388;27;20054;-73
2022/02/15 01:22:01;;;;;;;13.67;7.17;;;5.40;55.10;;;;;;5133176;27;20033;-73
2022/02/15 01:24:27;;;;;;;14.77;6.73;;;5.40;55.50;;;;;;5131982;27;20038;-73
2022/02/15 01:26:53;;;;;;;14.10;6.83;;;5.40;55.50;;;;;;5117997;27;20103;-73
2022/02/15 01:29:19;;;;;;;12.87;6.00;;;5.40;55.60;;;;;;5139328;27;20543;-73
2022/02/15 01:31:44;;;;;;;13.30;6.33;;;5.40;55.70;;;;;;5115690;27;20397;-74
2022/02/15 01:34:11;;;;;;;15.87;8.17;;;5.30;55.70;;;;;;5124316;27;20106;-73
2022/02/15 01:36:37;;;;;;;16.40;8.43;;;5.30;55.80;;;;;;5133742;27;20527;-73
2022/02/15 01:39:03;;;;;;;12.87;6.07;;;5.30;55.80;;;;;;5128808;27;20539;-73
2022/02/15 01:41:30;;;;;;;13.20;6.17;;;5.30;55.80;;;;;;5133492;27;20403;-73
2022/02/15 01:43:55;;;;;;;13.30;7.70;;;5.30;55.60;;;;;;5123271;27;20102;-73
2022/02/15 01:46:21;;;;;;;13.63;8.00;;;5.30;55.50;;;;;;5135653;27;20130;-73
2022/02/15 01:48:47;;;;;;;13.20;8.60;;;5.30;55.60;;;;;;5128129;27;20479;-73
2022/02/15 01:51:17;;;;;;;15.73;8.60;;;5.30;55.50;;;;;;5131969;27;20031;-73
2022/02/15 01:53:43;;;;;;;15.67;9.07;;;5.30;55.40;;;;;;5131679;27;20383;-73
2022/02/15 01:56:11;;;;;;;17.60;9.87;;;5.30;55.20;;;;;;5133233;27;20023;-73
2022/02/15 01:58:37;;;;;;;16.37;8.40;;;5.20;55.10;;;;;;5147088;27;20043;-73
2022/02/15 02:01:04;;;;;;;20.27;10.57;;;5.20;55.10;;;;;;5134379;27;20039;-73
2022/02/15 02:03:29;;;;;;;18.77;9.20;;;5.30;55.20;;;;;;5128938;27;20031;-74
2022/02/15 02:05:55;;;;;;;16.47;8.77;;;5.20;55.20;;;;;;5128438;27;20038;-73
2022/02/15 02:08:27;;;;;;;19.50;9.23;;;5.20;55.20;;;;;;5126800;27;20436;-73
2022/02/15 02:10:54;;;;;;;14.93;9.23;;;5.20;55.40;;;;;;5131993;27;20119;-73
2022/02/15 02:13:20;;;;;;;11.43;7.43;;;5.20;55.40;;;;;;5130821;27;20034;-73
2022/02/15 02:15:48;;;;;;;15.37;8.47;;;5.20;55.40;;;;;;5131336;27;20111;-73
2022/02/15 02:18:14;;;;;;;16.03;7.90;;;5.20;55.60;;;;;;5127073;27;20027;-73
2022/02/15 02:20:41;;;;;;;13.37;7.50;;;5.20;55.50;;;;;;5129703;27;20800;-73
2022/02/15 02:23:13;;;;;;;13.07;7.80;;;5.20;55.30;;;;;;5130599;27;20042;-73
2022/02/15 02:25:38;;;;;;;12.97;8.07;;;5.20;55.50;;;;;;5148527;27;20027;-73
2022/02/15 02:28:05;;;;;;;12.73;7.80;;;5.20;55.50;;;;;;5131725;27;20630;-73
2022/02/15 02:30:30;;;;;;;13.90;7.77;;;5.20;55.60;;;;;;5129294;27;20031;-73
2022/02/15 02:32:56;;;;;;;122.80;42.57;;;5.20;55.70;;;;;;5131184;27;20114;-73
2022/02/15 02:35:22;;;;;;;86.60;35.90;;;5.20;55.70;;;;;;5119881;27;20034;-73
2022/02/15 02:37:48;;;;;;;62.93;28.63;;;5.20;55.60;;;;;;5117255;27;20446;-74
2022/02/15 02:40:14;;;;;;;42.33;20.77;;;5.20;55.50;;;;;;5115773;27;20066;-73
2022/02/15 02:42:41;;;;;;;26.07;15.73;;;5.20;55.50;;;;;;5131597;27;20584;-74
2022/02/15 02:45:11;;;;;;;21.13;13.17;;;5.20;55.50;;;;;;5130404;27;20047;-73
2022/02/15 02:47:37;;;;;;;16.07;10.03;;;5.20;55.50;;;;;;5128582;27;20063;-73
2022/02/15 02:50:04;;;;;;;20.90;9.97;;;5.20;55.50;;;;;;5130186;27;20088;-73
2022/02/15 02:52:30;;;;;;;19.03;8.90;;;5.20;56.10;;;;;;5124418;27;20049;-73
2022/02/15 02:54:57;;;;;;;13.57;9.07;;;5.20;55.50;;;;;;5124430;27;20031;-73
2022/02/15 02:57:23;;;;;;;19.23;8.83;;;5.20;55.60;;;;;;5111439;28;20026;-73
2022/02/15 02:59:49;;;;;;;17.03;8.20;;;5.20;55.80;;;;;;5121810;27;20468;-73
2022/02/15 03:02:16;;;;;;;18.17;9.00;;;5.20;55.80;;;;;;5126027;27;20087;-74
2022/02/15 03:04:42;;;;;;;21.23;8.67;;;5.20;55.80;;;;;;5124856;27;20534;-73
2022/02/15 03:07:09;;;;;;;15.77;8.10;;;5.20;55.90;;;;;;5129181;27;20028;-73
2022/02/15 03:09:35;;;;;;;18.23;8.50;;;5.20;55.90;;;;;;5130982;27;20029;-73
2022/02/15 03:12:01;;;;;;;18.03;7.43;;;5.30;56.10;;;;;;5125070;27;20035;-73
2022/02/15 03:14:27;;;;;;;15.97;9.03;;;5.20;56.20;;;;;;5127583;27;20110;-73
2022/02/15 03:16:53;;;;;;;15.10;8.03;;;5.20;56.20;;;;;;5129921;27;20110;-73
2022/02/15 03:19:18;;;;;;;11.87;7.07;;;5.30;56.40;;;;;;5117702;27;20031;-74
2022/02/15 03:21:44;;;;;;;14.23;7.63;;;5.30;56.40;;;;;;5130111;27;20035;-73
2022/02/15 03:24:10;;;;;;;15.47;8.20;;;5.30;56.50;;;;;;5129653;27;20395;-74
2022/02/15 03:26:36;;;;;;;14.40;8.10;;;5.30;56.60;;;;;;5120947;27;20035;-73
2022/02/15 03:29:03;;;;;;;14.13;7.97;;;5.30;56.70;;;;;;5127629;27;20523;-73
2022/02/15 03:31:29;;;;;;;14.17;7.97;;;5.30;56.80;;;;;;5130674;27;20034;-74
2022/02/15 03:33:54;;;;;;;15.53;8.80;;;5.20;56.70;;;;;;5128967;27;20027;-73
2022/02/15 03:36:21;;;;;;;16.67;7.83;;;5.30;56.80;;;;;;5129235;27;20027;-74
2022/02/15 03:38:46;;;;;;;21.63;9.00;;;5.30;56.80;;;;;;5127067;27;20023;-73
2022/02/15 03:43:56;;;;;;;12.27;8.17;;;5.30;56.80;;;;;;5121371;27;20046;-73
2022/02/15 03:46:23;;;;;;;14.40;8.13;;;5.30;56.70;;;;;;5128980;27;20031;-73
2022/02/15 03:48:49;;;;;;;13.77;7.73;;;5.20;56.90;;;;;;5129136;27;20022;-73
2022/02/15 03:51:15;;;;;;;17.53;7.30;;;5.20;57.10;;;;;;5129139;27;20023;-73
2022/02/15 03:53:40;;;;;;;14.03;7.20;;;5.30;57.20;;;;;;5130263;27;20549;-73
2022/02/15 03:56:08;;;;;;;14.73;7.80;;;5.30;57.30;;;;;;5128498;27;20452;-73
2022/02/15 03:58:34;;;;;;;14.93;6.73;;;5.30;57.60;;;;;;5145558;27;20456;-73
2022/02/15 04:00:59;;;;;;;18.10;8.10;;;5.30;57.70;;;;;;5110975;27;20122;-73
2022/02/15 04:03:25;;;;;;;15.17;8.10;;;5.30;58.00;;;;;;5110678;28;20337;-73
2022/02/15 04:05:51;;;;;;;13.80;9.13;;;5.30;58.10;;;;;;5108783;28;20563;-73
2022/02/15 04:08:16;;;;;;;17.33;9.73;;;5.30;58.00;;;;;;5109499;28;20024;-73
2022/02/15 04:10:43;;;;;;;17.77;10.03;;;5.30;57.90;;;;;;5125120;27;20328;-73
2022/02/15 04:13:09;;;;;;;16.10;9.33;;;5.20;57.90;;;;;;5129549;27;20023;-73
2022/02/15 04:15:34;;;;;;;14.93;8.63;;;5.20;57.90;;;;;;5121935;27;20031;-73
2022/02/15 04:18:00;;;;;;;17.10;8.80;;;5.20;57.80;;;;;;5127561;27;20031;-73
2022/02/15 04:20:26;;;;;;;14.10;8.27;;;5.20;57.80;;;;;;5125772;27;20106;-73
2022/02/15 04:22:51;;;;;;;16.20;8.77;;;5.20;57.70;;;;;;5128081;27;20016;-73
2022/02/15 04:25:17;;;;;;;19.33;9.20;;;5.30;57.70;;;;;;5130384;27;20095;-74
2022/02/15 04:27:43;;;;;;;17.97;9.07;;;5.30;57.70;;;;;;5126036;27;20736;-73
2022/02/15 04:30:09;;;;;;;18.23;9.90;;;5.30;57.70;;;;;;5128096;27;20433;-74
2022/02/15 04:32:35;;;;;;;14.67;9.83;;;5.30;57.60;;;;;;5122217;27;20023;-74
2022/02/15 04:35:01;;;;;;;16.60;9.80;;;5.30;57.70;;;;;;5108559;28;20046;-73
2022/02/15 04:37:27;;;;;;;16.10;9.33;;;5.30;57.90;;;;;;5109597;28;20380;-73
2022/02/15 04:39:52;;;;;;;20.70;9.87;;;5.30;57.90;;;;;;5120145;28;20443;-73
2022/02/15 04:42:18;;;;;;;17.03;9.40;;;5.30;57.90;;;;;;5127920;28;20322;-73
2022/02/15 04:44:44;;;;;;;15.50;8.83;;;5.30;58.00;;;;;;5117265;28;20391;-73
2022/02/15 04:47:10;;;;;;;15.33;8.70;;;5.40;58.10;;;;;;5109592;28;20040;-73
2022/02/15 04:49:35;;;;;;;17.47;9.60;;;5.40;58.10;;;;;;5117481;27;20119;-73
2022/02/15 04:52:01;;;;;;;18.47;10.03;;;5.40;58.10;;;;;;5112533;27;20031;-73
2022/02/15 04:54:27;;;;;;;19.80;9.87;;;5.40;57.90;;;;;;5125478;27;20031;-73
2022/02/15 04:56:53;;;;;;;18.37;9.03;;;5.40;58.20;;;;;;5132227;27;20031;-73
2022/02/15 04:59:20;;;;;;;15.27;9.27;;;5.30;58.20;;;;;;5133200;27;20475;-74
2022/02/15 05:01:47;;;;;;;15.03;8.97;;;5.30;58.50;;;;;;5127254;27;20027;-73
2022/02/15 05:06:58;;;;;;;15.50;8.80;;;5.20;59.40;;;;;;5131116;27;20071;-73
2022/02/15 05:09:25;;;;;;;13.00;8.80;;;5.20;59.00;;;;;;5133857;27;20020;-73
2022/02/15 05:11:51;;;;;;;16.33;8.97;;;5.30;59.10;;;;;;5144836;27;20433;-74
2022/02/15 05:14:16;;;;;;;16.33;8.77;;;5.30;59.10;;;;;;5129357;27;20031;-73
2022/02/15 05:16:42;;;;;;;13.47;8.00;;;5.30;59.10;;;;;;5127644;27;20421;-73
2022/02/15 05:19:08;;;;;;;13.50;8.50;;;5.30;59.70;;;;;;5130753;27;20031;-73
2022/02/15 05:21:34;;;;;;;15.53;8.37;;;5.30;59.30;;;;;;5129214;27;20509;-73
2022/02/15 05:23:59;;;;;;;15.20;8.67;;;5.30;59.30;;;;;;5123679;27;20031;-72
2022/02/15 05:26:25;;;;;;;11.97;8.20;;;5.30;59.40;;;;;;5113237;28;20517;-73
2022/02/15 05:28:51;;;;;;;14.87;9.60;;;5.40;59.70;;;;;;5118262;27;20030;-75
2022/02/15 05:31:16;;;;;;;15.03;9.30;;;5.40;59.80;;;;;;5115567;27;20085;-73
2022/02/15 05:33:42;;;;;;;15.80;9.37;;;5.40;59.90;;;;;;5123266;27;20023;-73
2022/02/15 05:36:08;;;;;;;23.63;13.93;;;5.40;59.90;;;;;;5133193;27;20028;-73
2022/02/15 05:38:34;;;;;;;21.67;12.63;;;5.50;60.00;;;;;;5112322;28;20072;-73
2022/02/15 05:40:59;;;;;;;22.33;12.40;;;5.30;60.20;;;;;;5112151;27;20475;-73
2022/02/15 05:43:25;;;;;;;23.17;12.30;;;5.30;60.40;;;;;;5129395;27;20019;-74
2022/02/15 05:45:51;;;;;;;19.37;11.00;;;5.30;60.50;;;;;;5130366;27;20066;-74
2022/02/15 05:48:17;;;;;;;24.93;11.30;;;5.30;60.50;;;;;;5133399;27;20019;-73
2022/02/15 05:50:52;;;;;;;17.57;10.00;;;5.30;60.50;;;;;;5131715;27;20031;-73
2022/02/15 05:53:29;;;;;;;20.83;11.50;;;5.30;60.90;;;;;;5129365;27;20023;-73
2022/02/15 05:55:59;;;;;;;19.90;10.93;;;5.30;61.20;;;;;;5132736;27;20483;-74
2022/02/15 05:58:26;;;;;;;15.47;9.80;;;5.20;61.30;;;;;;5120807;27;20099;-73
2022/02/15 06:00:52;;;;;;;16.07;9.23;;;5.30;61.60;;;;;;5113575;27;20396;-73
2022/02/15 06:06:03;;;;;;;15.63;10.03;;;5.40;61.70;;;;;;5129391;27;20076;-73
2022/02/15 06:08:29;;;;;;;19.93;11.20;;;5.50;61.70;;;;;;5132229;27;20023;-73
2022/02/15 06:10:55;;;;;;;16.00;11.00;;;5.50;62.00;;;;;;5133291;27;20383;-73
2022/02/15 06:13:20;;;;;;;20.93;11.97;;;5.40;62.20;;;;;;5132302;27;20030;-73
2022/02/15 06:15:46;;;;;;;22.20;10.03;;;5.40;62.70;;;;;;5122331;27;20019;-73
2022/02/15 06:18:12;;;;;;;13.63;9.40;;;5.40;62.90;;;;;;5127629;27;20027;-73
2022/02/15 06:20:38;;;;;;;15.70;7.40;;;5.50;63.10;;;;;;5111461;28;20089;-73
2022/02/15 06:23:04;;;;;;;13.23;7.47;;;5.50;63.30;;;;;;5110947;28;20022;-73
2022/02/15 06:25:30;;;;;;;10.73;7.00;;;5.60;63.50;;;;;;5129181;27;20094;-73
2022/02/15 06:27:56;;;;;;;13.77;7.97;;;5.60;63.40;;;;;;5130682;27;20372;-73
2022/02/15 06:30:22;;;;;;;13.77;9.13;;;5.60;63.70;;;;;;5129558;27;20034;-74
2022/02/15 06:32:48;;;;;;;11.07;7.27;;;5.70;64.10;;;;;;5115196;27;20365;-73
2022/02/15 06:35:14;;;;;;;11.03;7.37;;;5.70;64.00;;;;;;5128670;27;20095;-73
2022/02/15 06:37:44;;;;;;;11.40;7.70;;;5.80;64.00;;;;;;5128370;27;20475;-73
2022/02/15 06:40:12;;;;;;;14.17;8.13;;;5.80;64.20;;;;;;5129837;27;20034;-73
2022/02/15 06:42:38;;;;;;;13.30;8.33;;;5.70;64.00;;;;;;5128845;27;20118;-73
2022/02/15 06:45:05;;;;;;;13.23;8.23;;;5.70;64.50;;;;;;5128361;27;20047;-73
2022/02/15 06:47:31;;;;;;;13.87;9.73;;;5.60;64.50;;;;;;5132243;27;20118;-73
2022/02/15 06:49:57;;;;;;;13.90;9.73;;;5.40;64.80;;;;;;5129548;27;20184;-73
2022/02/15 06:52:23;;;;;;;14.63;9.33;;;5.30;65.60;;;;;;5129184;27;20027;-73
2022/02/15 06:54:48;;;;;;;12.20;8.00;;;5.20;66.30;;;;;;5130532;27;20024;-73
2022/02/15 06:57:14;;;;;;;11.00;8.77;;;5.10;66.70;;;;;;5130268;27;20031;-73
2022/02/15 06:59:40;;;;;;;11.77;9.00;;;5.20;67.00;;;;;;5131566;27;20027;-73
2022/02/15 07:02:06;;;;;;;13.70;9.63;;;5.20;66.90;;;;;;5129097;27;20072;-73
2022/02/15 07:04:32;;;;;;;10.63;7.13;;;5.20;66.80;;;;;;5125393;27;20098;-73
2022/02/15 07:06:57;;;;;;;11.23;8.67;;;5.20;67.00;;;;;;5127924;27;20340;-73
2022/02/15 07:09:23;;;;;;;14.60;9.30;;;5.30;66.90;;;;;;5130643;27;20034;-73
2022/02/15 07:11:49;;;;;;;11.67;8.73;;;5.30;66.70;;;;;;5130084;27;20038;-73
2022/02/15 07:14:15;;;;;;;13.33;9.57;;;5.30;67.00;;;;;;5128971;27;20035;-73
2022/02/15 07:16:43;;;;;;;12.47;9.33;;;5.40;67.10;;;;;;5132769;27;20031;-74
2022/02/15 07:19:09;;;;;;;12.93;10.17;;;5.40;67.10;;;;;;5120582;27;20114;-75
2022/02/15 07:21:36;;;;;;;11.97;9.07;;;5.40;67.10;;;;;;5128932;27;20031;-72
2022/02/15 07:24:02;;;;;;;13.67;9.40;;;5.40;67.00;;;;;;5135630;27;20060;-73
2022/02/15 07:26:29;;;;;;;10.13;8.60;;;5.40;67.10;;;;;;5137318;27;20044;-73
2022/02/15 07:28:55;;;;;;;11.63;9.37;;;5.40;67.20;;;;;;5133148;27;20118;-73
2022/02/15 07:31:21;;;;;;;12.17;9.00;;;5.40;67.30;;;;;;5133182;27;20098;-74
2022/02/15 07:33:46;;;;;;;18.27;11.63;;;5.40;67.30;;;;;;5133242;27;20448;-72
2022/02/15 07:36:12;;;;;;;15.03;10.53;;;5.40;67.40;;;;;;5128653;27;20101;-73
2022/02/15 07:38:38;;;;;;;14.17;10.07;;;5.40;67.50;;;;;;5127118;27;20056;-73
2022/02/15 07:41:04;;;;;;;16.03;10.47;;;5.30;67.60;;;;;;5131293;27;20034;-73
2022/02/15 07:43:30;;;;;;;15.07;9.80;;;5.40;67.60;;;;;;5124708;27;20076;-73
2022/02/15 07:45:55;;;;;;;12.43;9.60;;;5.30;67.70;;;;;;5129877;27;22108;-73
2022/02/15 07:48:21;;;;;;;11.00;8.53;;;5.30;67.70;;;;;;5128946;27;20072;-73
2022/02/15 07:50:47;;;;;;;12.57;9.20;;;5.30;67.80;;;;;;5128520;27;20053;-73
2022/02/15 07:53:14;;;;;;;36.20;24.70;;;5.30;67.70;;;;;;5132510;27;20027;-73
2022/02/15 07:55:41;;;;;;;15.07;10.73;;;5.30;67.80;;;;;;5129270;27;20337;-73
2022/02/15 07:58:07;;;;;;;13.43;10.57;;;5.30;68.00;;;;;;5127694;27;20448;-73
2022/02/15 08:00:33;;;;;;;12.20;9.97;;;5.40;68.10;;;;;;5130387;27;20027;-73
2022/02/15 08:02:59;;;;;;;13.10;10.77;;;5.40;68.00;;;;;;5125005;27;20374;-73
2022/02/15 08:05:26;;;;;;;14.20;10.83;;;5.40;68.10;;;;;;5125054;27;20106;-73
2022/02/15 08:07:56;;;;;;;15.20;11.17;;;5.40;68.10;;;;;;5126008;27;20023;-74
2022/02/15 08:10:24;;;;;;;11.53;9.80;;;5.40;68.20;;;;;;5131536;27;20027;-73
2022/02/15 08:13:01;;;;;;;11.83;9.87;;;5.40;68.00;;;;;;5129309;27;20434;-73
2022/02/15 08:15:32;;;;;;;12.57;9.77;;;5.40;68.30;;;;;;5132664;27;20019;-73
2022/02/15 08:18:00;;;;;;;12.93;9.50;;;5.40;68.20;;;;;;5132135;27;20072;-73
2022/02/15 08:20:25;;;;;;;13.73;10.93;;;5.50;68.10;;;;;;5124634;27;20110;-73
2022/02/15 08:22:52;;;;;;;13.37;10.57;;;5.50;68.00;;;;;;5128440;27;20519;-73
2022/02/15 08:25:18;;;;;;;16.90;11.50;;;5.40;68.20;;;;;;5130952;27;20023;-73
2022/02/15 08:27:44;;;;;;;23.43;14.87;;;5.40;68.40;;;;;;5148695;27;20023;-73
2022/02/15 08:30:11;;;;;;;24.60;15.93;;;5.40;68.40;;;;;;5128374;27;20019;-73
2022/02/15 08:32:37;;;;;;;33.43;16.17;;;5.40;68.30;;;;;;5142640;27;20066;-73
2022/02/15 08:35:05;;;;;;;27.60;17.03;;;5.40;68.40;;;;;;5130023;27;20462;-73
2022/02/15 08:37:32;;;;;;;25.60;19.00;;;5.40;68.40;;;;;;5131159;28;20027;-73
2022/02/15 08:40:03;;;;;;;26.93;17.10;;;5.30;68.60;;;;;;5118643;28;20399;-73
2022/02/15 08:42:29;;;;;;;25.80;17.17;;;5.30;68.60;;;;;;5142399;27;20031;-74
2022/02/15 08:44:55;;;;;;;22.10;17.03;;;5.30;68.60;;;;;;5122850;28;20072;-73
2022/02/15 08:47:22;;;;;;;27.00;19.80;;;5.40;68.50;;;;;;5109957;28;20352;-73
2022/02/15 08:49:54;;;;;;;27.50;19.43;;;5.40;68.40;;;;;;5113613;27;20432;-73
2022/02/15 08:52:24;;;;;;;22.45;17.27;;;5.40;68.40;;;;;;5129724;28;20103;-73
2022/02/15 08:54:54;;;;;;;28.90;18.77;;;5.40;68.40;;;;;;5124646;27;20088;-73
2022/02/15 08:57:22;;;;;;;26.07;18.23;;;5.50;68.40;;;;;;5121723;27;20027;-73
2022/02/15 08:59:53;;;;;;;29.70;19.93;;;5.50;68.40;;;;;;5125829;28;20754;-73
2022/02/15 09:02:23;;;;;;;25.10;19.60;;;5.50;68.40;;;;;;5132176;27;20027;-73
2022/02/15 09:04:49;;;;;;;27.27;19.67;;;5.50;68.40;;;;;;5138845;27;20024;-73
2022/02/15 09:07:15;;;;;;;33.03;20.10;;;5.50;68.40;;;;;;5129790;28;20472;-73
2022/02/15 09:09:41;;;;;;;28.90;22.70;;;5.50;68.40;;;;;;5126920;28;20114;-73
2022/02/15 09:12:07;;;;;;;29.50;22.97;;;5.50;68.40;;;;;;5122055;28;20048;-73
2022/02/15 09:14:38;;;;;;;32.63;23.03;;;5.50;68.50;;;;;;5146258;27;20573;-73
2022/02/15 09:17:05;;;;;;;26.77;21.73;;;5.50;68.60;;;;;;5132030;27;20047;-73
2022/02/15 09:19:32;;;;;;;34.60;22.83;;;5.50;68.60;;;;;;5116955;28;20408;-73
2022/02/15 09:21:59;;;;;;;35.70;24.30;;;5.50;68.70;;;;;;5125018;27;20502;-75
2022/02/15 09:24:26;;;;;;;33.03;23.93;;;5.50;68.60;;;;;;5127279;28;20766;-73
2022/02/15 09:26:52;;;;;;;41.20;25.83;;;5.50;68.50;;;;;;5126235;28;20015;-73
2022/02/15 09:29:18;;;;;;;34.33;23.30;;;5.50;68.60;;;;;;5129241;28;20627;-73
2022/02/15 09:31:44;;;;;;;40.17;25.10;;;5.50;68.80;;;;;;5125648;27;20479;-73
2022/02/15 09:34:10;;;;;;;31.10;21.47;;;5.50;68.90;;;;;;5127939;27;20023;-73
2022/02/15 09:36:36;;;;;;;33.53;23.27;;;5.50;68.90;;;;;;5134820;27;20850;-74
2022/02/15 09:39:04;;;;;;;27.90;20.47;;;5.50;68.90;;;;;;5126691;27;20024;-73
2022/02/15 09:41:33;;;;;;;29.13;22.83;;;5.50;68.90;;;;;;5133446;27;20030;-73
2022/02/15 09:44:01;;;;;;;24.47;19.77;;;5.50;69.60;;;;;;5133931;27;20134;-73
2022/02/15 09:46:27;;;;;;;27.33;20.97;;;5.50;69.10;;;;;;5129234;27;20510;-73
2022/02/15 09:48:54;;;;;;;38.97;26.73;;;5.50;69.10;;;;;;5130271;27;20055;-73
2022/02/15 09:51:22;;;;;;;35.43;24.97;;;5.50;69.20;;;;;;5134953;27;20024;-73
2022/02/15 09:53:49;;;;;;;25.73;18.97;;;5.60;69.10;;;;;;5130018;27;20503;-73
2022/02/15 09:56:15;;;;;;;25.90;19.30;;;5.60;69.00;;;;;;5132336;27;20027;-73
2022/02/15 09:58:42;;;;;;;33.10;22.70;;;5.60;69.10;;;;;;5131781;27;20110;-73
2022/02/15 10:01:12;;;;;;;25.17;18.73;;;5.60;69.20;;;;;;5129230;27;20045;-73
2022/02/15 10:04:10;;;;;;;23.40;18.03;;;5.60;69.00;;;;;;5134305;27;20500;-73
2022/02/15 10:06:40;;;;;;;20.73;15.63;;;5.60;69.10;;;;;;5111447;27;20383;-73
2022/02/15 10:09:06;;;;;;;28.87;22.37;;;5.60;69.10;;;;;;5134445;27;20102;-73
2022/02/15 10:11:41;;;;;;;28.77;23.50;;;5.60;69.20;;;;;;5132780;27;20030;-73
2022/02/15 10:14:08;;;;;;;31.20;24.47;;;5.60;69.50;;;;;;5126555;27;20031;-75
2022/02/15 10:16:51;;;;;;;34.13;24.07;;;5.60;69.40;;;;;;5138091;27;20133;-73
2022/02/15 10:19:24;;;;;;;35.50;23.67;;;5.60;69.50;;;;;;5122307;27;20348;-73
2022/02/15 10:21:54;;;;;;;28.20;22.15;;;5.50;69.50;;;;;;5131424;27;20026;-73
2022/02/15 10:24:24;;;;;;;31.23;24.53;;;5.50;69.50;;;;;;5134968;27;20487;-73
2022/02/15 10:27:16;;;;;;;28.40;20.93;;;5.50;69.80;;;;;;5132254;27;20025;-73
2022/02/15 10:29:44;;;;;;;31.63;24.08;;;5.50;70.00;;;;;;5131243;27;20047;-74
2022/02/15 10:32:16;;;;;;;33.30;22.60;;;5.50;69.90;;;;;;5124503;27;20403;-73
2022/02/15 10:34:58;;;;;;;30.58;21.83;;;5.60;69.90;;;;;;5132814;27;20102;-74
2022/02/15 10:37:28;;;;;;;27.60;20.50;;;5.60;69.80;;;;;;5123433;27;20380;-74
2022/02/15 10:40:00;;;;;;;26.83;20.30;;;5.70;69.80;;;;;;5131305;27;20031;-73
2022/02/15 10:42:28;;;;;;;30.13;21.00;;;5.70;69.60;;;;;;5124514;27;20050;-73
2022/02/15 10:45:03;;;;;;;22.43;18.37;;;5.60;69.60;;;;;;5132442;27;20118;-73
2022/02/15 10:47:35;;;;;;;17.33;14.97;;;5.70;69.80;;;;;;5148253;27;20177;-73
2022/02/15 10:50:03;;;;;;;16.97;12.67;;;5.70;69.80;;;;;;5146455;27;20027;-73
2022/02/15 10:52:29;;;;;;;12.93;10.30;;;5.70;69.70;;;;;;5125766;27;20035;-74
2022/02/15 10:54:56;;;;;;;56.30;25.93;;;5.70;69.60;;;;;;5127945;27;20026;-74
2022/02/15 10:57:25;;;;;;;19.83;14.67;;;5.70;69.70;;;;;;5128689;27;20467;-73
2022/02/15 10:59:52;;;;;;;15.70;13.40;;;5.70;69.80;;;;;;5129046;27;20098;-74
2022/02/15 11:02:30;;;;;;;18.17;14.90;;;5.70;69.70;;;;;;5131617;27;20114;-73
2022/02/15 11:05:02;;;;;;;129.63;69.93;;;5.70;69.60;;;;;;5129848;27;20020;-73
2022/02/15 11:07:31;;;;;;;54.90;34.05;;;5.70;69.50;;;;;;5130253;27;20031;-73
2022/02/15 11:10:29;;;;;;;38.57;26.23;;;5.70;69.60;;;;;;5137648;27;20559;-73
2022/02/15 11:12:57;;;;;;;31.83;22.77;;;5.80;69.70;;;;;;5118824;27;20030;-73
2022/02/15 11:15:30;;;;;;;40.07;25.07;;;5.80;69.00;;;;;;5121419;27;20023;-73
2022/02/15 11:18:02;;;;;;;41.03;21.83;;;5.80;69.50;;;;;;5126628;27;20642;-73
2022/02/15 11:20:30;;;;;;;219.70;47.73;;;5.80;69.40;;;;;;5116799;27;20054;-73
2022/02/15 11:22:59;;;;;;;490.53;98.50;;;5.80;69.90;;;;;;5145002;27;20325;-73
2022/02/15 11:25:33;;;;;;;231.97;52.93;;;5.70;69.30;;;;;;5142541;27;20016;-73
2022/02/15 11:28:15;;;;;;;100.33;33.43;;;5.70;69.70;;;;;;5112140;28;20415;-73
2022/02/15 11:30:45;;;;;;;86.25;29.65;;;5.70;69.70;;;;;;5117354;27;20046;-73
2022/02/15 11:33:18;;;;;;;40.13;23.27;;;5.70;69.70;;;;;;5113147;27;20034;-74
2022/02/15 11:35:55;;;;;;;27.47;19.73;;;5.70;69.60;;;;;;5119105;27;20476;-73
2022/02/15 11:38:25;;;;;;;28.97;19.80;;;5.70;69.70;;;;;;5129264;27;20077;-73
2022/02/15 11:41:00;;;;;;;31.63;21.80;;;5.70;69.60;;;;;;5115849;27;20023;-73
2022/02/15 11:43:25;;;;;;;30.33;20.30;;;5.70;69.60;;;;;;5126687;27;20808;-73
2022/02/15 11:45:51;;;;;;;29.63;21.97;;;5.70;69.60;;;;;;5131550;27;20051;-73
2022/02/15 11:48:17;;;;;;;25.93;19.47;;;5.70;70.10;;;;;;5117035;27;20036;-75
2022/02/15 11:50:47;;;;;;;29.50;20.40;;;5.80;69.60;;;;;;5127555;27;20039;-73
2022/02/15 11:53:13;;;;;;;27.50;22.87;;;5.80;69.50;;;;;;5130258;27;20067;-73
2022/02/15 11:55:41;;;;;;;30.20;20.70;;;5.80;69.50;;;;;;5124143;27;20055;-73
2022/02/15 11:58:08;;;;;;;29.97;21.03;;;5.80;69.50;;;;;;5121009;27;20500;-73
2022/02/15 12:00:39;;;;;;;30.20;21.43;;;5.80;69.50;;;;;;5131086;27;20027;-73
2022/02/15 12:03:06;;;;;;;31.60;21.77;;;5.80;69.70;;;;;;5121736;27;20349;-73
2022/02/15 12:05:37;;;;;;;29.43;22.83;;;5.70;69.60;;;;;;5115690;27;20023;-73
2022/02/15 12:08:03;;;;;;;36.03;25.10;;;5.70;69.70;;;;;;5112123;27;20027;-73
2022/02/15 12:10:40;;;;;;;50.37;29.83;;;5.70;69.60;;;;;;5119190;27;20072;-74
2022/02/15 12:13:20;;;;;;;35.10;25.20;;;5.70;69.80;;;;;;5111637;27;20055;-73
2022/02/15 12:15:52;;;;;;;32.47;21.77;;;5.80;69.80;;;;;;5130815;27;20026;-73
2022/02/15 12:18:31;;;;;;;50.47;24.23;;;5.80;69.70;;;;;;5116932;27;20023;-73
2022/02/15 12:20:57;;;;;;;50.37;28.13;;;5.80;69.80;;;;;;5132435;27;20082;-73
2022/02/15 12:23:25;;;;;;;46.20;28.00;;;5.80;69.50;;;;;;5128096;27;20029;-74
2022/02/15 12:25:50;;;;;;;57.90;30.27;;;5.80;69.50;;;;;;5143239;27;20027;-74
2022/02/15 12:28:24;;;;;;;45.87;28.80;;;5.90;69.50;;;;;;5111753;28;20597;-74
2022/02/15 12:30:50;;;;;;;65.17;32.67;;;5.90;69.70;;;;;;5126395;27;20537;-73
2022/02/15 12:33:20;;;;;;;46.70;27.80;;;5.90;69.60;;;;;;5132308;27;20023;-73
2022/02/15 12:35:54;;;;;;;34.20;27.20;;;5.90;69.40;;;;;;5127327;27;20064;-72
2022/02/15 12:38:20;;;;;;;32.23;24.87;;;5.90;69.50;;;;;;5125973;28;20657;-73
2022/02/15 12:40:46;;;;;;;28.77;22.60;;;5.90;69.80;;;;;;5123140;28;20035;-73
2022/02/15 12:43:12;;;;;;;31.13;24.70;;;5.90;69.80;;;;;;5123838;28;20043;-73
2022/02/15 12:45:47;;;;;;;48.00;31.97;;;5.90;69.70;;;;;;5125164;28;20341;-75
2022/02/15 12:48:12;;;;;;;51.17;33.13;;;5.90;69.80;;;;;;5115142;27;20055;-73
2022/02/15 12:50:38;;;;;;;43.50;30.57;;;6.00;69.80;;;;;;5127797;28;20059;-73
2022/02/15 12:53:04;;;;;;;36.53;27.50;;;6.00;69.70;;;;;;5126262;28;20028;-74